Time;durP1;ratioP1;P1;durP2;ratioP2;P2;SDS_P1;SDS_P2;PMS_P1;PMS_P2;Temp;Humidity;BMP_temperature;BMP_pressure;BME280_temperature;BME280_humidity;BME280_pressure;Samples;Min_cycle;Max_cycle;Signal;HPM_P1;HPM_P2
2023/03/30 00:02:11;;;;;;;;;;;17.30;66.30;;;;;;5036442;28;1389;-68
2023/03/30 00:04:37;;;;;;;;;;;17.30;66.40;;;;;;5037544;28;1262;-68
2023/03/30 00:07:04;;;;;;;;;;;17.30;66.30;;;;;;5034330;28;1902;-68
2023/03/30 00:09:31;;;;;;;;;;;17.30;66.30;;;;;;5071073;28;1001;-68
2023/03/30 00:12:02;;;;;;;;;;;17.30;66.40;;;;;;5039102;28;832;-68
2023/03/30 00:14:28;;;;;;;;;;;17.30;66.40;;;;;;5041850;28;1324;-68
2023/03/30 00:16:54;;;;;;;;;;;17.30;66.40;;;;;;5072034;28;852;-68
2023/03/30 00:19:20;;;;;;;;;;;17.30;66.40;;;;;;5041181;28;970;-69
2023/03/30 00:21:46;;;;;;;;;;;17.30;66.40;;;;;;5045026;28;1198;-68
2023/03/30 00:24:11;;;;;;;;;;;17.30;66.40;;;;;;5041617;28;1367;-69
2023/03/30 00:26:37;;;;;;;;;;;17.30;66.40;;;;;;5038319;28;1340;-69
2023/03/30 00:29:02;;;;;;;;;;;17.30;66.40;;;;;;5070456;28;1922;-69
2023/03/30 00:31:28;;;;;;;;;;;17.30;66.40;;;;;;5041969;28;1357;-69
2023/03/30 00:33:54;;;;;;;;;;;17.30;66.40;;;;;;5038684;28;1622;-68
2023/03/30 00:36:19;;;;;;;;;;;17.30;66.40;;;;;;5042679;28;1321;-68
2023/03/30 00:38:45;;;;;;;;;;;17.30;66.40;;;;;;5042365;28;1424;-70
2023/03/30 00:41:11;;;;;;;;;;;17.30;66.40;;;;;;5038488;28;1268;-69
2023/03/30 00:43:55;;;;;;;;;;;17.30;66.40;;;;;;5047874;28;1431;-67
2023/03/30 00:46:22;;;;;;;;;;;17.30;66.50;;;;;;5040196;28;1274;-67
2023/03/30 00:48:47;;;;;;;;;;;17.30;66.50;;;;;;5071085;28;1898;-66
2023/03/30 00:51:13;;;;;;;;;;;17.30;66.50;;;;;;5042125;28;1415;-69
2023/03/30 00:53:43;;;;;;;;;;;17.30;66.50;;;;;;5037122;28;847;-69
2023/03/30 00:56:09;;;;;;;;;;;17.30;66.50;;;;;;5035991;28;1282;-68
2023/03/30 00:58:35;;;;;;;;;;;17.30;66.50;;;;;;5036483;28;1069;-69
2023/03/30 01:01:01;;;;;;;;;;;17.30;66.50;;;;;;5034944;28;906;-69
2023/03/30 01:03:31;;;;;;;;;;;17.30;66.50;;;;;;5037958;28;968;-69
2023/03/30 01:05:57;;;;;;;;;;;17.20;66.50;;;;;;5034821;28;1263;-69
2023/03/30 01:08:22;;;;;;;;;;;17.30;66.50;;;;;;5036391;28;1961;-69
2023/03/30 01:10:48;;;;;;;;;;;17.20;66.50;;;;;;5069107;28;871;-69
2023/03/30 01:13:14;;;;;;;;;;;17.20;66.50;;;;;;5038293;28;1179;-67
2023/03/30 01:15:48;;;;;;;;;;;17.30;66.50;;;;;;5035718;28;1285;-67
2023/03/30 01:18:32;;;;;;;;;;;17.30;66.60;;;;;;5047469;28;840;-67
2023/03/30 01:21:00;;;;;;;;;;;17.30;66.60;;;;;;5039150;28;864;-67
2023/03/30 01:23:36;;;;;;;;;;;17.20;66.50;;;;;;5041765;28;927;-67
2023/03/30 01:26:07;;;;;;;;;;;17.30;66.60;;;;;;5037370;28;1337;-67
2023/03/30 01:28:35;;;;;;;;;;;17.30;66.60;;;;;;5037169;28;1906;-67
2023/03/30 01:31:19;;;;;;;;;;;17.30;66.60;;;;;;5068905;28;860;-67
2023/03/30 01:34:07;;;;;;;;;;;17.20;66.60;;;;;;5039699;28;1336;-67
2023/03/30 01:37:02;;;;;;;;;;;17.20;66.60;;;;;;5051050;28;816;-67
2023/03/30 01:39:39;;;;;;;;;;;17.20;66.60;;;;;;5043798;28;1508;-68
2023/03/30 01:42:04;;;;;;;;;;;17.20;66.60;;;;;;5073612;28;856;-68
2023/03/30 01:44:36;;;;;;;;;;;17.20;66.60;;;;;;5042612;28;1279;-68
2023/03/30 01:47:05;;;;;;;;;;;17.20;66.60;;;;;;5044999;28;1898;-69
2023/03/30 01:49:38;;;;;;;;;;;17.20;66.60;;;;;;5039895;28;891;-69
2023/03/30 01:52:12;;;;;;;;;;;17.20;66.70;;;;;;5070401;28;841;-69
2023/03/30 01:54:39;;;;;;;;;;;17.20;66.60;;;;;;5078770;28;1363;-68
2023/03/30 01:57:14;;;;;;;;;;;17.20;66.60;;;;;;5040916;28;821;-68
2023/03/30 01:59:42;;;;;;;;;;;17.20;66.70;;;;;;5074074;28;847;-68
2023/03/30 02:02:08;;;;;;;;;;;17.20;66.60;;;;;;5030075;28;1163;-69
2023/03/30 02:04:35;;;;;;;;;;;17.20;66.70;;;;;;5073514;28;1244;-69
2023/03/30 02:07:17;;;;;;;;;;;17.20;66.70;;;;;;5039188;28;1981;-69
2023/03/30 02:09:42;;;;;;;;;;;17.20;66.70;;;;;;5050300;28;880;-69
2023/03/30 02:12:08;;;;;;;;;;;17.20;66.70;;;;;;5049744;28;907;-70
2023/03/30 02:14:33;;;;;;;;;;;17.20;66.70;;;;;;5075464;28;1332;-68
2023/03/30 02:17:00;;;;;;;;;;;17.20;66.70;;;;;;5041265;28;1415;-68
2023/03/30 02:19:26;;;;;;;;;;;17.20;66.70;;;;;;5041315;28;888;-70
2023/03/30 02:21:52;;;;;;;;;;;17.20;66.70;;;;;;5050528;28;915;-68
2023/03/30 02:24:19;;;;;;;;;;;17.20;66.70;;;;;;5041940;28;1248;-72
2023/03/30 02:26:45;;;;;;;;;;;17.20;66.70;;;;;;5074730;28;1981;-69
2023/03/30 02:29:11;;;;;;;;;;;17.20;66.70;;;;;;5041889;28;1299;-68
2023/03/30 02:31:37;;;;;;;;;;;17.20;66.70;;;;;;5041629;28;1070;-69
2023/03/30 02:34:12;;;;;;;;;;;17.20;66.70;;;;;;5070124;28;1360;-70
2023/03/30 02:36:46;;;;;;;;;;;17.20;66.80;;;;;;5072794;28;1390;-69
2023/03/30 02:39:12;;;;;;;;;;;17.20;66.70;;;;;;5041211;28;879;-69
2023/03/30 02:41:40;;;;;;;;;;;17.20;66.70;;;;;;5040078;28;846;-70
2023/03/30 02:44:09;;;;;;;;;;;17.20;66.80;;;;;;5041240;28;1254;-67
2023/03/30 02:46:39;;;;;;;;;;;17.20;66.80;;;;;;5049104;28;899;-67
2023/03/30 02:49:12;;;;;;;;;;;17.20;66.80;;;;;;5070982;28;1971;-67
2023/03/30 02:51:39;;;;;;;;;;;17.20;66.80;;;;;;5041350;28;902;-68
2023/03/30 02:54:23;;;;;;;;;;;17.20;66.90;;;;;;5040591;28;1362;-68
2023/03/30 02:56:51;;;;;;;;;;;17.20;66.80;;;;;;5041741;28;915;-67
2023/03/30 02:59:18;;;;;;;;;;;17.20;66.80;;;;;;5040508;28;875;-68
2023/03/30 03:01:46;;;;;;;;;;;17.20;66.80;;;;;;5042346;28;994;-68
2023/03/30 03:04:14;;;;;;;;;;;17.20;66.90;;;;;;5071574;28;1263;-68
2023/03/30 03:06:39;;;;;;;;;;;17.20;66.80;;;;;;5039445;28;859;-67
2023/03/30 03:09:05;;;;;;;;;;;17.20;66.90;;;;;;5072016;28;1957;-67
2023/03/30 03:11:30;;;;;;;;;;;17.20;66.80;;;;;;5040443;28;847;-67
2023/03/30 03:13:56;;;;;;;;;;;17.20;66.80;;;;;;5040893;28;1280;-67
2023/03/30 03:16:21;;;;;;;;;;;17.20;66.80;;;;;;5041121;28;819;-67
2023/03/30 03:18:48;;;;;;;;;;;17.20;66.90;;;;;;5070712;28;1078;-67
2023/03/30 03:21:14;;;;;;;;;;;17.20;66.80;;;;;;5072657;28;856;-67
2023/03/30 03:23:39;;;;;;;;;;;17.20;66.90;;;;;;5038775;28;1437;-67
2023/03/30 03:26:06;;;;;;;;;;;17.20;66.80;;;;;;5034375;28;1252;-68
2023/03/30 03:28:31;;;;;;;;;;;17.20;66.90;;;;;;5039861;28;1956;-68
2023/03/30 03:30:58;;;;;;;;;;;17.20;66.80;;;;;;5074296;28;970;-68
2023/03/30 03:33:24;;;;;;;;;;;17.10;66.80;;;;;;5040211;28;840;-68
2023/03/30 03:35:52;;;;;;;;;;;17.20;66.90;;;;;;5036416;28;1347;-68
2023/03/30 03:38:21;;;;;;;;;;;17.20;66.90;;;;;;5040599;28;1386;-69
2023/03/30 03:40:48;;;;;;;;;;;17.20;66.90;;;;;;5035712;28;881;-67
2023/03/30 03:43:13;;;;;;;;;;;17.20;66.90;;;;;;5037610;28;1053;-67
2023/03/30 03:45:39;;;;;;;;;;;17.20;66.90;;;;;;5039636;28;1264;-68
2023/03/30 03:48:04;;;;;;;;;;;17.20;66.90;;;;;;5042528;28;1901;-68
2023/03/30 03:50:30;;;;;;;;;;;17.20;66.90;;;;;;5040023;28;836;-69
2023/03/30 03:52:55;;;;;;;;;;;17.10;66.80;;;;;;5041720;28;1011;-69
2023/03/30 03:55:22;;;;;;;;;;;17.20;66.90;;;;;;5038991;28;1362;-69
2023/03/30 03:57:47;;;;;;;;;;;17.10;66.80;;;;;;5037293;28;836;-69
2023/03/30 04:00:16;;;;;;;;;;;17.20;66.90;;;;;;5035602;28;1885;-67
2023/03/30 04:02:41;;;;;;;;;;;17.20;66.90;;;;;;5040018;28;1953;-67
2023/03/30 04:05:07;;;;;;;;;;;17.10;66.80;;;;;;5039387;28;1401;-67
2023/03/30 04:07:33;;;;;;;;;;;17.20;66.90;;;;;;5071694;28;1963;-67
2023/03/30 04:09:58;;;;;;;;;;;17.20;66.90;;;;;;5040936;28;1489;-68
2023/03/30 04:12:24;;;;;;;;;;;17.20;66.90;;;;;;5037111;28;990;-68
2023/03/30 04:14:49;;;;;;;;;;;17.20;66.80;;;;;;5037365;28;1277;-69
2023/03/30 04:17:15;;;;;;;;;;;17.20;66.70;;;;;;5037888;28;906;-68
2023/03/30 04:19:40;;;;;;;;;;;17.20;66.60;;;;;;5039442;28;890;-67
2023/03/30 04:22:06;;;;;;;;;;;17.30;66.60;;;;;;5041534;28;1216;-67
2023/03/30 04:24:34;;;;;;;;;;;17.30;66.40;;;;;;5037121;28;1330;-67
2023/03/30 04:27:00;;;;;;;;;;;17.30;66.30;;;;;;5036534;28;1906;-67
2023/03/30 04:29:25;;;;;;;;;;;17.30;66.20;;;;;;5041449;28;1272;-67
2023/03/30 04:31:51;;;;;;;;;;;17.30;66.10;;;;;;5039825;28;800;-67
2023/03/30 04:34:20;;;;;;;;;;;17.40;66.10;;;;;;5043052;28;1333;-67
2023/03/30 04:36:46;;;;;;;;;;;17.40;66.00;;;;;;5038546;28;1168;-69
2023/03/30 04:39:12;;;;;;;;;;;17.40;65.90;;;;;;5044071;28;1292;-67
2023/03/30 04:41:40;;;;;;;;;;;17.40;65.80;;;;;;5039804;28;817;-67
2023/03/30 04:44:07;;;;;;;;;;;17.50;65.70;;;;;;5037855;28;1370;-67
2023/03/30 04:46:33;;;;;;;;;;;17.50;65.70;;;;;;5070585;28;872;-69
2023/03/30 04:48:59;;;;;;;;;;;17.50;65.60;;;;;;5039251;28;1901;-68
2023/03/30 04:51:25;;;;;;;;;;;17.50;65.50;;;;;;5038447;28;827;-69
2023/03/30 04:53:50;;;;;;;;;;;17.50;65.50;;;;;;5034413;28;1292;-70
2023/03/30 04:56:15;;;;;;;;;;;17.50;65.50;;;;;;5038814;28;928;-69
2023/03/30 04:58:41;;;;;;;;;;;17.60;65.40;;;;;;5038018;28;804;-70
2023/03/30 05:01:07;;;;;;;;;;;17.60;65.40;;;;;;5036903;28;1200;-67
2023/03/30 05:03:33;;;;;;;;;;;17.60;65.30;;;;;;5037977;28;840;-67
2023/03/30 05:05:58;;;;;;;;;;;17.60;65.20;;;;;;5037553;28;1503;-68
2023/03/30 05:08:24;;;;;;;;;;;17.60;65.20;;;;;;5036539;28;2084;-69
2023/03/30 05:10:49;;;;;;;;;;;17.60;65.20;;;;;;5036530;28;910;-70
2023/03/30 05:13:15;;;;;;;;;;;17.60;65.10;;;;;;5038924;28;816;-66
2023/03/30 05:15:40;;;;;;;;;;;17.60;65.10;;;;;;5044886;28;1228;-65
2023/03/30 05:18:06;;;;;;;;;;;17.60;65.10;;;;;;5039537;28;785;-66
2023/03/30 05:20:32;;;;;;;;;;;17.60;65.10;;;;;;5037727;28;884;-66
2023/03/30 05:22:57;;;;;;;;;;;17.60;65.10;;;;;;5037121;28;896;-66
2023/03/30 05:25:22;;;;;;;;;;;17.70;65.10;;;;;;5036179;28;1642;-65
2023/03/30 05:27:48;;;;;;;;;;;17.60;65.80;;;;;;5037442;28;1951;-65
2023/03/30 05:30:13;;;;;;;;;;;17.60;65.00;;;;;;5034555;28;829;-73
2023/03/30 05:32:39;;;;;;;;;;;17.60;65.00;;;;;;5038739;28;883;-72
2023/03/30 05:35:05;;;;;;;;;;;17.60;65.00;;;;;;5039994;28;1267;-67
2023/03/30 05:37:30;;;;;;;;;;;17.60;65.00;;;;;;5041695;28;1626;-67
2023/03/30 05:39:56;;;;;;;;;;;17.60;65.00;;;;;;5040881;28;1414;-67
2023/03/30 05:42:21;;;;;;;;;;;17.60;65.00;;;;;;5040292;28;1220;-67
2023/03/30 05:44:47;;;;;;;;;;;17.60;65.00;;;;;;5039323;28;1202;-68
2023/03/30 05:47:12;;;;;;;;;;;17.60;65.10;;;;;;5034963;28;1952;-68
2023/03/30 05:49:38;;;;;;;;;;;17.60;65.00;;;;;;5039336;28;840;-69
2023/03/30 05:52:03;;;;;;;;;;;17.60;65.00;;;;;;5038348;28;830;-69
2023/03/30 05:54:29;;;;;;;;;;;17.60;65.10;;;;;;5036875;28;1275;-69
2023/03/30 05:56:54;;;;;;;;;;;17.60;65.10;;;;;;5040857;28;850;-69
2023/03/30 05:59:20;;;;;;;;;;;17.60;65.10;;;;;;5036465;28;950;-69
2023/03/30 06:01:46;;;;;;;;;;;17.60;65.10;;;;;;5037486;28;788;-69
2023/03/30 06:04:12;;;;;;;;;;;17.60;65.10;;;;;;5036597;28;1272;-72
2023/03/30 06:06:37;;;;;;;;;;;17.60;65.20;;;;;;5039359;28;892;-71
2023/03/30 06:09:05;;;;;;;;;;;17.60;65.20;;;;;;5038371;28;1955;-71
2023/03/30 06:11:31;;;;;;;;;;;17.60;65.20;;;;;;5036322;28;860;-71
2023/03/30 06:13:56;;;;;;;;;;;17.60;65.20;;;;;;5038133;28;1351;-70
2023/03/30 06:16:22;;;;;;;;;;;17.60;65.20;;;;;;5041521;28;1077;-70
2023/03/30 06:18:47;;;;;;;;;;;17.60;65.30;;;;;;5045009;28;849;-71
2023/03/30 06:21:13;;;;;;;;;;;17.60;65.30;;;;;;5043522;28;1315;-69
2023/03/30 06:23:40;;;;;;;;;;;17.60;65.30;;;;;;5045212;28;801;-71
2023/03/30 06:26:06;;;;;;;;;;;17.50;65.30;;;;;;5048050;28;1293;-70
2023/03/30 06:28:32;;;;;;;;;;;17.50;65.30;;;;;;5040577;28;1894;-70
2023/03/30 06:30:57;;;;;;;;;;;17.50;65.30;;;;;;5042727;28;860;-69
2023/03/30 06:33:24;;;;;;;;;;;17.50;65.40;;;;;;5040889;28;962;-69
2023/03/30 06:35:50;;;;;;;;;;;17.50;65.40;;;;;;5041480;28;1245;-69
2023/03/30 06:38:16;;;;;;;;;;;17.50;65.40;;;;;;5042040;28;1057;-69
2023/03/30 06:40:41;;;;;;;;;;;17.50;65.50;;;;;;5049131;28;1934;-71
2023/03/30 06:43:07;;;;;;;;;;;17.50;65.50;;;;;;5072087;28;1494;-70
2023/03/30 06:45:32;;;;;;;;;;;17.50;65.50;;;;;;5045542;28;1290;-70
2023/03/30 06:47:58;;;;;;;;;;;17.50;65.50;;;;;;5041838;28;1926;-70
2023/03/30 06:50:23;;;;;;;;;;;17.50;65.50;;;;;;5074334;28;834;-70
2023/03/30 06:52:49;;;;;;;;;;;17.50;65.60;;;;;;5035663;28;913;-69
2023/03/30 06:55:14;;;;;;;;;;;17.50;65.60;;;;;;5038555;28;1229;-69
2023/03/30 06:57:40;;;;;;;;;;;17.50;65.60;;;;;;5041218;28;946;-69
2023/03/30 07:00:12;;;;;;;;;;;17.50;65.70;;;;;;5039018;28;872;-70
2023/03/30 07:02:38;;;;;;;;;;;17.50;65.70;;;;;;5041393;28;826;-69
2023/03/30 07:05:05;;;;;;;;;;;17.50;65.70;;;;;;5041665;28;1347;-72
2023/03/30 07:07:30;;;;;;;;;;;17.50;65.70;;;;;;5047873;28;1965;-71
2023/03/30 07:09:56;;;;;;;;;;;17.40;65.60;;;;;;5041601;28;1082;-71
2023/03/30 07:12:21;;;;;;;;;;;17.50;65.70;;;;;;5039896;28;945;-71
2023/03/30 07:14:47;;;;;;;;;;;17.50;65.80;;;;;;5040108;28;1347;-71
2023/03/30 07:17:12;;;;;;;;;;;17.40;65.70;;;;;;5039782;28;824;-70
2023/03/30 07:19:38;;;;;;;;;;;17.40;65.70;;;;;;5039664;28;980;-71
2023/03/30 07:22:03;;;;;;;;;;;17.40;65.80;;;;;;5038857;28;1117;-71
2023/03/30 07:24:30;;;;;;;;;;;17.40;65.70;;;;;;5040742;28;1251;-70
2023/03/30 07:26:56;;;;;;;;;;;17.40;65.80;;;;;;5039732;28;931;-70
2023/03/30 07:29:21;;;;;;;;;;;17.40;65.80;;;;;;5041418;28;1281;-70
2023/03/30 07:31:47;;;;;;;;;;;17.40;65.80;;;;;;5047898;28;863;-69
2023/03/30 07:34:12;;;;;;;;;;;17.40;65.80;;;;;;5038981;28;1375;-71
2023/03/30 07:36:38;;;;;;;;;;;17.40;65.90;;;;;;5037432;28;1390;-73
2023/03/30 07:39:03;;;;;;;;;;;17.40;65.90;;;;;;5038718;28;892;-70
2023/03/30 07:41:29;;;;;;;;;;;17.40;65.90;;;;;;5041242;28;894;-70
2023/03/30 07:43:54;;;;;;;;;;;17.40;65.90;;;;;;5039096;28;1245;-69
2023/03/30 07:46:20;;;;;;;;;;;17.40;65.90;;;;;;5039829;28;829;-71
2023/03/30 07:48:45;;;;;;;;;;;17.40;65.90;;;;;;5042705;28;1961;-70
2023/03/30 07:51:11;;;;;;;;;;;17.40;65.90;;;;;;5039914;28;843;-70
2023/03/30 07:53:37;;;;;;;;;;;17.40;65.90;;;;;;5038620;28;1052;-69
2023/03/30 07:56:03;;;;;;;;;;;17.40;66.00;;;;;;5038950;28;1289;-70
2023/03/30 07:58:28;;;;;;;;;;;17.40;66.00;;;;;;5038601;28;931;-70
2023/03/30 08:00:54;;;;;;;;;;;17.40;66.00;;;;;;5039543;28;847;-70
2023/03/30 08:03:20;;;;;;;;;;;17.40;66.00;;;;;;5041975;28;1197;-69
2023/03/30 08:05:56;;;;;;;;;;;17.40;66.00;;;;;;5073399;28;1338;-69
2023/03/30 08:08:21;;;;;;;;;;;17.40;66.00;;;;;;5041990;28;1962;-70
2023/03/30 08:10:47;;;;;;;;;;;17.40;65.90;;;;;;5041690;28;920;-69
2023/03/30 08:13:12;;;;;;;;;;;17.40;65.90;;;;;;5064387;28;1171;-69
2023/03/30 08:15:38;;;;;;;;;;;17.40;65.80;;;;;;5034749;28;1349;-69
2023/03/30 08:18:06;;;;;;;;;;;17.40;65.90;;;;;;5038352;28;845;-70
2023/03/30 08:20:32;;;;;;;;;;;17.50;65.80;;;;;;5039815;28;1296;-69
2023/03/30 08:22:58;;;;;;;;;;;17.40;65.70;;;;;;5070219;28;1286;-69
2023/03/30 08:25:23;;;;;;;;;;;17.40;65.70;;;;;;5039590;28;1677;-69
2023/03/30 08:27:49;;;;;;;;;;;17.40;65.70;;;;;;5036054;28;1957;-70
2023/03/30 08:30:15;;;;;;;;;;;17.50;65.70;;;;;;5038553;28;962;-70
2023/03/30 08:32:40;;;;;;;;;;;17.50;65.70;;;;;;5036653;28;872;-69
2023/03/30 08:35:06;;;;;;;;;;;17.50;65.70;;;;;;5037502;28;1360;-68
2023/03/30 08:37:31;;;;;;;;;;;17.50;65.70;;;;;;5041721;28;1465;-68
2023/03/30 08:39:57;;;;;;;;;;;17.50;65.70;;;;;;5039236;28;1651;-67
2023/03/30 08:42:41;;;;;;;;;;;17.50;65.70;;;;;;5040974;28;1240;-66
2023/03/30 08:45:07;;;;;;;;;;;17.60;65.70;;;;;;5040119;28;2025;-66
2023/03/30 08:47:38;;;;;;;;;;;17.50;65.60;;;;;;5075300;28;1905;-66
2023/03/30 08:50:05;;;;;;;;;;;17.50;65.50;;;;;;5046816;28;1750;-69
2023/03/30 08:52:32;;;;;;;;;;;17.50;65.50;;;;;;5041473;28;919;-70
2023/03/30 08:54:58;;;;;;;;;;;17.50;65.40;;;;;;5071034;28;1441;-70
2023/03/30 08:57:37;;;;;;;;;;;17.60;65.50;;;;;;5038782;28;943;-69
2023/03/30 09:00:07;;;;;;;;;;;17.60;65.40;;;;;;5072251;28;828;-70
2023/03/30 09:02:34;;;;;;;;;;;17.60;65.40;;;;;;5037969;28;1251;-70
2023/03/30 09:05:01;;;;;;;;;;;17.60;65.40;;;;;;5034893;28;1363;-70
2023/03/30 09:07:37;;;;;;;;;;;17.60;65.50;;;;;;5046024;28;1901;-69
2023/03/30 09:10:02;;;;;;;;;;;17.50;65.30;;;;;;5047241;28;856;-70
2023/03/30 09:12:47;;;;;;;;;;;17.60;65.40;;;;;;5071553;28;1265;-69
2023/03/30 09:15:12;;;;;;;;;;;17.60;65.40;;;;;;5036806;28;1259;-69
2023/03/30 09:17:40;;;;;;;;;;;17.60;65.40;;;;;;5038520;28;1809;-69
2023/03/30 09:20:08;;;;;;;;;;;17.60;65.40;;;;;;5063188;28;1270;-69
2023/03/30 09:22:40;;;;;;;;;;;17.50;65.40;;;;;;5044880;28;2008;-69
2023/03/30 09:25:20;;;;;;;;;;;17.50;65.40;;;;;;5048661;28;1424;-69
2023/03/30 09:28:04;;;;;;;;;;;17.50;65.40;;;;;;5037626;28;1963;-68
2023/03/30 09:30:35;;;;;;;;;;;17.50;65.50;;;;;;5036802;28;1444;-68
2023/03/30 09:33:04;;;;;;;;;;;17.50;65.50;;;;;;5038238;28;1341;-69
2023/03/30 09:35:33;;;;;;;;;;;17.50;65.50;;;;;;5045879;28;1264;-69
2023/03/30 09:37:59;;;;;;;;;;;17.50;65.50;;;;;;5036928;28;1489;-68
2023/03/30 09:40:26;;;;;;;;;;;17.50;65.50;;;;;;5037147;28;857;-69
2023/03/30 09:42:56;;;;;;;;;;;17.50;65.50;;;;;;5038519;28;872;-69
2023/03/30 09:45:24;;;;;;;;;;;17.50;65.50;;;;;;5068682;28;1284;-69
2023/03/30 09:47:49;;;;;;;;;;;17.50;65.60;;;;;;5046906;28;1898;-69
2023/03/30 09:50:22;;;;;;;;;;;17.50;65.60;;;;;;5038485;28;1316;-69
2023/03/30 09:52:53;;;;;;;;;;;17.50;65.70;;;;;;5037734;28;899;-67
2023/03/30 09:55:31;;;;;;;;;;;17.50;65.60;;;;;;5040363;28;1249;-69
2023/03/30 09:58:08;;;;;;;;;;;17.50;65.70;;;;;;5043687;28;2076;-69
2023/03/30 10:00:34;;;;;;;;;;;17.50;65.70;;;;;;5042615;28;1339;-68
2023/03/30 10:03:01;;;;;;;;;;;17.50;65.70;;;;;;5042000;28;1559;-68
2023/03/30 10:05:27;;;;;;;;;;;17.50;65.70;;;;;;5038672;28;1322;-68
2023/03/30 10:07:53;;;;;;;;;;;17.50;65.80;;;;;;5072040;28;1963;-68
2023/03/30 10:10:21;;;;;;;;;;;17.50;65.80;;;;;;5041151;28;1437;-68
2023/03/30 10:12:50;;;;;;;;;;;17.50;65.80;;;;;;5042818;28;885;-68
2023/03/30 10:15:19;;;;;;;;;;;17.50;65.80;;;;;;5040048;28;1337;-68
2023/03/30 10:17:45;;;;;;;;;;;17.40;66.00;;;;;;5039185;28;867;-68
2023/03/30 10:20:16;;;;;;;;;;;17.40;65.80;;;;;;5042454;28;845;-68
2023/03/30 10:23:14;;;;;;;;;;;17.40;65.80;;;;;;5040556;28;956;-68
2023/03/30 10:25:39;;;;;;;;;;;17.40;65.80;;;;;;5016606;28;1283;-68
2023/03/30 10:28:05;;;;;;;;;;;17.40;65.80;;;;;;5039439;28;1961;-67
2023/03/30 10:30:31;;;;;;;;;;;17.40;65.90;;;;;;5042671;28;914;-69
2023/03/30 10:32:57;;;;;;;;;;;17.40;65.90;;;;;;5039012;28;1067;-69
2023/03/30 10:35:23;;;;;;;;;;;17.40;66.70;;;;;;5042586;28;1263;-69
2023/03/30 10:37:50;;;;;;;;;;;17.40;65.90;;;;;;5071406;28;1409;-69
2023/03/30 10:40:16;;;;;;;;;;;17.40;65.90;;;;;;5049062;28;1057;-69
2023/03/30 10:42:41;;;;;;;;;;;17.40;65.90;;;;;;5072534;28;919;-68
2023/03/30 10:45:13;;;;;;;;;;;17.40;65.90;;;;;;5041257;28;1342;-69
2023/03/30 10:47:44;;;;;;;;;;;17.40;66.00;;;;;;5043203;28;1902;-68
2023/03/30 10:50:18;;;;;;;;;;;17.40;66.00;;;;;;5042385;28;1209;-68
2023/03/30 10:52:48;;;;;;;;;;;17.40;66.00;;;;;;5054259;28;1214;-68
2023/03/30 10:55:14;;;;;;;;;;;17.40;66.00;;;;;;5049345;28;1397;-68
2023/03/30 10:57:47;;;;;;;;;;;17.40;66.00;;;;;;5040968;28;920;-68
2023/03/30 11:00:16;;;;;;;;;;;17.40;66.10;;;;;;5073084;28;887;-68
2023/03/30 11:02:50;;;;;;;;;;;17.40;66.10;;;;;;5038808;28;820;-68
2023/03/30 11:05:21;;;;;;;;;;;17.40;66.10;;;;;;5025658;28;1632;-69
2023/03/30 11:07:59;;;;;;;;;;;17.30;66.10;;;;;;5042339;28;1898;-69
2023/03/30 11:10:28;;;;;;;;;;;17.40;66.10;;;;;;5059334;28;916;-68
2023/03/30 11:12:55;;;;;;;;;;;17.30;66.30;;;;;;5070830;28;863;-67
2023/03/30 11:15:22;;;;;;;;;;;17.40;66.20;;;;;;5067073;28;1371;-68
2023/03/30 11:17:50;;;;;;;;;;;17.30;66.10;;;;;;5069447;28;858;-68
2023/03/30 11:20:22;;;;;;;;;;;17.40;66.20;;;;;;5040760;28;872;-68
2023/03/30 11:22:49;;;;;;;;;;;17.30;66.10;;;;;;5038713;28;848;-68
2023/03/30 11:25:24;;;;;;;;;;;17.30;66.20;;;;;;5038629;28;1248;-67
2023/03/30 11:27:51;;;;;;;;;;;17.30;66.20;;;;;;5047428;28;1963;-68
2023/03/30 11:30:18;;;;;;;;;;;17.30;66.20;;;;;;5044095;28;1317;-67
2023/03/30 11:32:55;;;;;;;;;;;17.30;66.20;;;;;;5075780;28;1518;-68
2023/03/30 11:35:39;;;;;;;;;;;17.30;66.20;;;;;;5037638;28;1495;-68
2023/03/30 11:38:10;;;;;;;;;;;17.30;66.30;;;;;;5043190;28;1576;-68
2023/03/30 11:40:38;;;;;;;;;;;17.30;66.20;;;;;;5039893;28;888;-68
2023/03/30 11:43:04;;;;;;;;;;;17.30;67.00;;;;;;5040506;28;1022;-67
2023/03/30 11:45:33;;;;;;;;;;;17.30;66.30;;;;;;5039642;28;1328;-68
2023/03/30 11:48:04;;;;;;;;;;;17.30;66.30;;;;;;5038824;28;1905;-71
2023/03/30 11:50:48;;;;;;;;;;;17.30;66.30;;;;;;5041598;28;887;-68
2023/03/30 11:53:13;;;;;;;;;;;17.30;66.40;;;;;;5036907;28;923;-68
2023/03/30 11:55:39;;;;;;;;;;;17.30;66.30;;;;;;5040103;28;1323;-68
2023/03/30 11:58:08;;;;;;;;;;;17.30;66.30;;;;;;5040698;28;837;-69
2023/03/30 12:00:39;;;;;;;;;;;17.30;66.40;;;;;;5036845;28;930;-68
2023/03/30 12:03:25;;;;;;;;;;;17.30;66.30;;;;;;5040938;28;924;-68
2023/03/30 12:06:05;;;;;;;;;;;17.30;66.40;;;;;;5038772;28;1373;-68
2023/03/30 12:08:41;;;;;;;;;;;17.30;66.40;;;;;;5040359;28;1906;-68
2023/03/30 12:11:06;;;;;;;;;;;17.30;66.40;;;;;;5039658;28;943;-69
2023/03/30 12:13:32;;;;;;;;;;;17.30;66.40;;;;;;5037338;28;920;-69
2023/03/30 12:15:59;;;;;;;;;;;17.30;66.40;;;;;;5036474;28;1342;-68
2023/03/30 12:18:28;;;;;;;;;;;17.30;66.40;;;;;;5044962;28;1301;-71
2023/03/30 12:20:53;;;;;;;;;;;17.30;67.20;;;;;;5036864;28;2113;-69
2023/03/30 12:23:27;;;;;;;;;;;17.30;66.40;;;;;;5037519;28;1354;-69
2023/03/30 12:25:59;;;;;;;;;;;17.30;66.40;;;;;;5041603;28;1567;-68
2023/03/30 12:28:25;;;;;;;;;;;17.30;66.50;;;;;;5037400;28;1949;-68
2023/03/30 12:30:58;;;;;;;;;;;17.30;66.50;;;;;;5043046;28;915;-68
2023/03/30 12:33:53;;;;;;;;;;;17.30;66.50;;;;;;5041527;28;868;-68
2023/03/30 12:36:25;;;;;;;;;;;17.30;66.50;;;;;;5032207;28;1246;-69
2023/03/30 12:38:56;;;;;;;;;;;17.30;66.50;;;;;;5037754;28;1506;-68
2023/03/30 12:41:21;;;;;;;;;;;17.30;66.50;;;;;;5072109;28;835;-68
2023/03/30 12:44:07;;;;;;;;;;;17.30;66.50;;;;;;5037436;28;1183;-68
2023/03/30 12:46:51;;;;;;;;;;;17.30;66.50;;;;;;5034651;28;1244;-68
2023/03/30 12:49:23;;;;;;;;;;;17.30;66.50;;;;;;5039317;28;1910;-69
2023/03/30 12:52:08;;;;;;;;;;;17.30;66.50;;;;;;5037492;28;1091;-68
2023/03/30 12:54:59;;;;;;;;;;;17.30;66.60;;;;;;5036416;28;1236;-68
2023/03/30 12:57:31;;;;;;;;;;;17.30;66.60;;;;;;5035901;28;1468;-68
2023/03/30 12:59:56;;;;;;;;;;;17.20;66.50;;;;;;5037937;28;861;-67
2023/03/30 13:02:37;;;;;;;;;;;17.20;66.50;;;;;;5041247;28;1038;-68
2023/03/30 13:05:04;;;;;;;;;;;17.30;66.60;;;;;;5071113;28;1365;-68
2023/03/30 13:07:30;;;;;;;;;;;17.20;66.60;;;;;;5038547;28;1949;-68
2023/03/30 13:09:58;;;;;;;;;;;17.30;66.60;;;;;;5039192;28;1308;-68
2023/03/30 13:12:26;;;;;;;;;;;17.20;66.60;;;;;;5069051;28;1412;-68
2023/03/30 13:15:04;;;;;;;;;;;17.30;66.60;;;;;;5041094;28;1316;-68
2023/03/30 13:17:49;;;;;;;;;;;17.30;66.60;;;;;;5041998;28;1470;-68
2023/03/30 13:20:18;;;;;;;;;;;17.30;66.70;;;;;;5038569;28;1636;-68
2023/03/30 13:23:02;;;;;;;;;;;17.30;66.70;;;;;;5039747;28;1367;-68
2023/03/30 13:25:35;;;;;;;;;;;17.20;66.60;;;;;;5039530;28;1370;-67
2023/03/30 13:28:02;;;;;;;;;;;17.20;66.60;;;;;;5039793;28;1950;-69
2023/03/30 13:30:28;;;;;;;;;;;17.30;66.70;;;;;;5041516;28;1838;-70
2023/03/30 13:32:56;;;;;;;;;;;17.20;66.60;;;;;;5030622;28;1452;-68
2023/03/30 13:35:31;;;;;;;;;;;17.20;66.70;;;;;;5045701;28;1361;-68
2023/03/30 13:38:16;;;;;;;;;;;17.20;66.70;;;;;;5047840;28;1414;-68
2023/03/30 13:40:59;;;;;;;;;;;17.20;66.70;;;;;;5044346;28;1394;-67
2023/03/30 13:43:32;;;;;;;;;;;17.20;66.70;;;;;;5041618;28;1434;-68
2023/03/30 13:46:03;;;;;;;;;;;17.20;66.70;;;;;;5040685;28;1288;-68
2023/03/30 13:48:35;;;;;;;;;;;17.20;66.70;;;;;;5043317;28;1890;-67
2023/03/30 13:51:01;;;;;;;;;;;17.20;66.70;;;;;;5046055;28;1481;-67
2023/03/30 13:53:27;;;;;;;;;;;17.20;66.70;;;;;;5044632;28;1300;-67
2023/03/30 13:55:53;;;;;;;;;;;17.20;66.70;;;;;;5049217;28;1384;-68
2023/03/30 13:58:22;;;;;;;;;;;17.20;66.70;;;;;;5041696;28;1435;-69
2023/03/30 14:00:49;;;;;;;;;;;17.20;66.70;;;;;;5040696;28;1530;-68
2023/03/30 14:03:33;;;;;;;;;;;17.20;66.80;;;;;;5041761;28;1381;-69
2023/03/30 14:06:14;;;;;;;;;;;17.20;66.80;;;;;;5045026;28;1431;-70
2023/03/30 14:08:41;;;;;;;;;;;17.20;66.80;;;;;;5071146;28;1969;-68
2023/03/30 14:11:14;;;;;;;;;;;17.20;66.80;;;;;;5039661;28;1572;-68
2023/03/30 14:13:39;;;;;;;;;;;17.20;66.80;;;;;;5038499;28;892;-69
2023/03/30 14:16:05;;;;;;;;;;;17.20;66.80;;;;;;5040492;28;1217;-68
2023/03/30 14:18:31;;;;;;;;;;;17.20;66.80;;;;;;5041075;28;828;-68
2023/03/30 14:20:57;;;;;;;;;;;17.20;66.80;;;;;;5040579;28;892;-69
2023/03/30 14:23:22;;;;;;;;;;;17.20;66.80;;;;;;5074897;28;2116;-69
2023/03/30 14:25:47;;;;;;;;;;;17.20;66.80;;;;;;5042822;28;1892;-69
2023/03/30 14:28:18;;;;;;;;;;;17.20;66.80;;;;;;5040293;28;1940;-69
2023/03/30 14:30:47;;;;;;;;;;;17.20;66.80;;;;;;5041742;28;1235;-69
2023/03/30 14:33:12;;;;;;;;;;;17.20;67.60;;;;;;5038860;28;896;-69
2023/03/30 14:35:42;;;;;;;;;;;17.20;66.90;;;;;;5040241;28;1277;-69
2023/03/30 14:38:11;;;;;;;;;;;17.20;66.90;;;;;;5072869;28;1938;-70
2023/03/30 14:40:37;;;;;;;;;;;17.20;66.90;;;;;;5043114;28;1625;-70
2023/03/30 14:43:02;;;;;;;;;;;17.20;66.90;;;;;;5048469;28;1397;-70